Time;durP1;ratioP1;P1;durP2;ratioP2;P2;SDS_P1;SDS_P2;PMS_P1;PMS_P2;Temp;Humidity;BMP_temperature;BMP_pressure;BME280_temperature;BME280_humidity;BME280_pressure;Samples;Min_cycle;Max_cycle;Signal;HPM_P1;HPM_P2
2021/04/17 00:01:15;;;;;;;;;;;;;;;;;;5060063;28;19961;-87
2021/04/17 00:03:41;;;;;;;;;;;;;;;;;;5059871;28;19920;-87
2021/04/17 00:06:07;;;;;;;;;;;;;;;;;;5074433;28;20014;-86
2021/04/17 00:08:35;;;;;;;;;;;;;;;;;;5076386;28;20007;-85
2021/04/17 00:11:00;;;;;;;;;;;;;;;;;;5059620;28;19920;-87
2021/04/17 00:13:26;;;;;;;;;;;;;;;;;;5059622;28;20407;-87
2021/04/17 00:15:52;;;;;;;;;;;;;;;;;;5075652;28;20275;-87
2021/04/17 00:18:18;;;;;;;;;;;;;;;;;;5059388;28;19969;-87
2021/04/17 00:20:43;;;;;;;;;;;;;;;;;;5059391;28;19915;-86
2021/04/17 00:23:08;;;;;;;;;;;;;;;;;;5057099;28;19919;-87
2021/04/17 00:25:35;;;;;;;;;;;;;;;;;;5059177;28;19962;-86
2021/04/17 00:28:01;;;;;;;;;;;;;;;;;;5042333;28;19916;-87
2021/04/17 00:30:26;;;;;;;;;;;;;;;;;;5058883;28;19969;-87
2021/04/17 00:32:52;;;;;;;;;;;;;;;;;;5058850;28;19964;-86
2021/04/17 00:35:18;;;;;;;;;;;;;;;;;;5054832;28;19916;-87
2021/04/17 00:37:43;;;;;;;;;;;;;;;;;;5058946;28;19919;-86
2021/04/17 00:40:10;;;;;;;;;;;;;;;;;;5073279;28;19912;-85
2021/04/17 00:42:35;;;;;;;;;;;;;;;;;;5059132;28;20042;-87
2021/04/17 00:45:00;;;;;;;;;;;;;;;;;;5075840;28;19991;-86
2021/04/17 00:47:25;;;;;;;;;;;;;;;;;;5075215;28;19949;-87
2021/04/17 00:49:51;;;;;;;;;;;;;;;;;;5058294;28;19924;-87
2021/04/17 00:52:16;;;;;;;;;;;;;;;;;;5074741;28;20027;-87
2021/04/17 00:54:42;;;;;;;;;;;;;;;;;;5059240;28;19935;-87
2021/04/17 00:57:08;;;;;;;;;;;;;;;;;;5075409;28;19912;-87
2021/04/17 00:59:34;;;;;;;;;;;;;;;;;;5070976;28;19912;-87
2021/04/17 01:02:00;;;;;;;;;;;;;;;;;;5063210;28;19920;-88
2021/04/17 01:04:25;;;;;;;;;;;;;;;;;;5058072;28;20017;-88
2021/04/17 01:06:52;;;;;;;;;;;;;;;;;;5074385;28;19923;-88
2021/04/17 01:09:38;;;;;;;;;;;;;;;;;;5069668;28;20374;-86
2021/04/17 01:12:08;;;;;;;;;;;;;;;;;;5040630;28;20391;-87
2021/04/17 01:14:36;;;;;;;;;;;;;;;;;;5075285;28;19913;-88
2021/04/17 01:17:02;;;;;;;;;;;;;;;;;;5057359;28;20433;-87
2021/04/17 01:19:47;;;;;;;;;;;;;;;;;;5058328;28;19962;-87
2021/04/17 01:22:17;;;;;;;;;;;;;;;;;;5058258;28;19912;-87
2021/04/17 01:24:43;;;;;;;;;;;;;;;;;;5074489;28;19916;-87
2021/04/17 01:27:09;;;;;;;;;;;;;;;;;;5058842;28;19919;-88
2021/04/17 01:29:35;;;;;;;;;;;;;;;;;;5073804;28;19912;-88
2021/04/17 01:32:02;;;;;;;;;;;;;;;;;;5081204;28;19920;-87
2021/04/17 01:34:28;;;;;;;;;;;;;;;;;;5057861;28;19924;-87
2021/04/17 01:36:59;;;;;;;;;;;;;;;;;;5054483;28;20369;-87
2021/04/17 01:39:27;;;;;;;;;;;;;;;;;;5057914;28;19912;-88
2021/04/17 01:41:53;;;;;;;;;;;;;;;;;;5055786;28;19920;-89
2021/04/17 01:44:26;;;;;;;;;;;;;;;;;;5058096;28;20297;-88
2021/04/17 01:47:02;;;;;;;;;;;;;;;;;;5053478;28;19913;-87
2021/04/17 01:49:27;;;;;;;;;;;;;;;;;;5068877;28;20263;-88
2021/04/17 01:51:53;;;;;;;;;;;;;;;;;;5055479;28;19919;-88
2021/04/17 01:54:20;;;;;;;;;;;;;;;;;;5062186;28;19912;-87
2021/04/17 01:56:47;;;;;;;;;;;;;;;;;;5058358;28;20018;-89
2021/04/17 01:59:14;;;;;;;;;;;;;;;;;;5073974;28;20388;-88
2021/04/17 02:01:39;;;;;;;;;;;;;;;;;;5055979;28;20144;-87
2021/04/17 02:04:06;;;;;;;;;;;;;;;;;;5057887;28;20046;-87
2021/04/17 02:06:32;;;;;;;;;;;;;;;;;;5056884;28;19920;-88
2021/04/17 02:08:57;;;;;;;;;;;;;;;;;;5073646;28;19913;-87
2021/04/17 02:11:22;;;;;;;;;;;;;;;;;;5057553;28;19919;-87
2021/04/17 02:13:48;;;;;;;;;;;;;;;;;;5081958;28;19912;-88
2021/04/17 02:16:17;;;;;;;;;;;;;;;;;;5050359;28;19935;-87
2021/04/17 02:18:49;;;;;;;;;;;;;;;;;;5074282;28;19999;-87
2021/04/17 02:21:15;;;;;;;;;;;;;;;;;;5074431;28;19919;-88
2021/04/17 02:23:40;;;;;;;;;;;;;;;;;;5080518;28;19920;-87
2021/04/17 02:26:06;;;;;;;;;;;;;;;;;;5073204;28;20011;-85
2021/04/17 02:28:33;;;;;;;;;;;;;;;;;;5061595;28;19920;-86
2021/04/17 02:31:01;;;;;;;;;;;;;;;;;;5054778;28;20357;-87
2021/04/17 02:33:28;;;;;;;;;;;;;;;;;;5073119;28;19927;-88
2021/04/17 02:35:54;;;;;;;;;;;;;;;;;;5056334;28;19912;-88
2021/04/17 02:38:20;;;;;;;;;;;;;;;;;;5073694;28;20285;-87
2021/04/17 02:40:46;;;;;;;;;;;;;;;;;;5056835;28;19916;-87
2021/04/17 02:43:11;;;;;;;;;;;;;;;;;;5073552;28;19926;-87
2021/04/17 02:45:36;;;;;;;;;;;;;;;;;;5072496;28;20403;-87
2021/04/17 02:48:01;;;;;;;;;;;;;;;;;;5056591;28;19966;-86
2021/04/17 02:50:27;;;;;;;;;;;;;;;;;;5057108;28;19950;-87
2021/04/17 02:52:52;;;;;;;;;;;;;;;;;;5056380;28;19923;-87
2021/04/17 02:55:17;;;;;;;;;;;;;;;;;;5073606;28;19977;-87
2021/04/17 02:57:43;;;;;;;;;;;;;;;;;;5056996;28;19958;-87
2021/04/17 03:00:08;;;;;;;;;;;;;;;;;;5073638;28;20334;-87
2021/04/17 03:02:34;;;;;;;;;;;;;;;;;;5048198;28;19923;-89
2021/04/17 03:05:00;;;;;;;;;;;;;;;;;;5073605;28;19920;-88
2021/04/17 03:07:25;;;;;;;;;;;;;;;;;;5056781;28;20273;-87
2021/04/17 03:09:50;;;;;;;;;;;;;;;;;;5072785;28;19920;-87
2021/04/17 03:12:15;;;;;;;;;;;;;;;;;;5073139;28;19971;-87
2021/04/17 03:14:41;;;;;;;;;;;;;;;;;;5073322;28;20077;-87
2021/04/17 03:17:07;;;;;;;;;;;;;;;;;;5072944;28;19916;-87
2021/04/17 03:19:32;;;;;;;;;;;;;;;;;;5056435;28;19912;-87
2021/04/17 03:21:57;;;;;;;;;;;;;;;;;;5073141;28;19911;-87
2021/04/17 03:24:23;;;;;;;;;;;;;;;;;;5073237;28;20301;-87
2021/04/17 03:26:48;;;;;;;;;;;;;;;;;;5073000;28;19912;-88
2021/04/17 03:29:13;;;;;;;;;;;;;;;;;;5073171;28;20004;-86
2021/04/17 03:31:39;;;;;;;;;;;;;;;;;;5056252;28;19939;-87
2021/04/17 03:34:04;;;;;;;;;;;;;;;;;;5056037;28;20014;-87
2021/04/17 03:36:29;;;;;;;;;;;;;;;;;;5073012;28;19916;-87
2021/04/17 03:38:54;;;;;;;;;;;;;;;;;;5056473;28;19916;-87
2021/04/17 03:41:20;;;;;;;;;;;;;;;;;;5073034;28;20289;-87
2021/04/17 03:43:45;;;;;;;;;;;;;;;;;;5073532;28;19919;-87
2021/04/17 03:46:10;;;;;;;;;;;;;;;;;;5073182;28;19973;-86
2021/04/17 03:48:35;;;;;;;;;;;;;;;;;;5056355;28;19916;-88
2021/04/17 03:51:01;;;;;;;;;;;;;;;;;;5073353;28;20353;-88
2021/04/17 03:53:26;;;;;;;;;;;;;;;;;;5056384;28;19923;-88
2021/04/17 03:55:51;;;;;;;;;;;;;;;;;;5073088;28;20343;-87
2021/04/17 03:58:17;;;;;;;;;;;;;;;;;;5073933;28;19919;-87
2021/04/17 04:00:42;;;;;;;;;;;;;;;;;;5076828;28;20459;-88
2021/04/17 04:03:07;;;;;;;;;;;;;;;;;;5076715;28;20370;-88
2021/04/17 04:05:32;;;;;;;;;;;;;;;;;;5076599;28;19920;-88
2021/04/17 04:07:58;;;;;;;;;;;;;;;;;;5076498;28;19951;-88
2021/04/17 04:10:23;;;;;;;;;;;;;;;;;;5059289;28;20293;-88
2021/04/17 04:12:48;;;;;;;;;;;;;;;;;;5059748;28;19912;-88
2021/04/17 04:15:14;;;;;;;;;;;;;;;;;;5060071;28;19916;-88
2021/04/17 04:17:39;;;;;;;;;;;;;;;;;;5068378;28;19912;-88
2021/04/17 04:20:06;;;;;;;;;;;;;;;;;;5060128;28;20002;-87
2021/04/17 04:22:34;;;;;;;;;;;;;;;;;;5067750;28;19916;-87
2021/04/17 04:24:59;;;;;;;;;;;;;;;;;;5058916;28;19958;-87
2021/04/17 04:27:25;;;;;;;;;;;;;;;;;;5059380;28;19916;-87
2021/04/17 04:29:51;;;;;;;;;;;;;;;;;;5076335;28;19920;-87
2021/04/17 04:32:16;;;;;;;;;;;;;;;;;;5076276;28;19916;-88
2021/04/17 04:34:41;;;;;;;;;;;;;;;;;;5075917;28;19935;-87
2021/04/17 04:37:06;;;;;;;;;;;;;;;;;;5059017;28;20288;-87
2021/04/17 04:39:33;;;;;;;;;;;;;;;;;;5074685;28;19912;-86
2021/04/17 04:41:58;;;;;;;;;;;;;;;;;;5075792;28;19919;-87
2021/04/17 04:44:23;;;;;;;;;;;;;;;;;;5058878;28;20273;-87
2021/04/17 04:46:48;;;;;;;;;;;;;;;;;;5075881;28;19912;-87
2021/04/17 04:49:14;;;;;;;;;;;;;;;;;;5075863;28;19951;-88
2021/04/17 04:51:39;;;;;;;;;;;;;;;;;;5059024;28;20292;-88
2021/04/17 04:54:05;;;;;;;;;;;;;;;;;;5075719;28;20397;-88
2021/04/17 04:56:30;;;;;;;;;;;;;;;;;;5059212;28;20023;-88
2021/04/17 04:58:55;;;;;;;;;;;;;;;;;;5076259;28;19916;-92
2021/04/17 05:01:38;;;;;;;;;;;;;;;;;;5076107;28;19920;-94
2021/04/17 05:04:19;;;;;;;;;;;;;;;;;;5058429;28;19916;-93
2021/04/17 05:07:14;;;;;;;;;;;;;;;;;;5074332;28;19999;-94
2021/04/17 05:09:48;;;;;;;;;;;;;;;;;;5041341;28;19956;-94
2021/04/17 05:12:13;;;;;;;;;;;;;;;;;;5041550;28;19909;-93
2021/04/17 05:14:38;;;;;;;;;;;;;;;;;;5041891;28;19912;-92
2021/04/17 05:17:04;;;;;;;;;;;;;;;;;;5042122;28;19915;-92
2021/04/17 05:19:29;;;;;;;;;;;;;;;;;;5042054;28;20015;-93
2021/04/17 05:21:54;;;;;;;;;;;;;;;;;;5041319;28;19909;-92
2021/04/17 05:24:19;;;;;;;;;;;;;;;;;;5040202;28;20374;-93
2021/04/17 05:26:45;;;;;;;;;;;;;;;;;;5023699;28;19917;-90
2021/04/17 05:29:10;;;;;;;;;;;;;;;;;;5039710;28;19931;-93
2021/04/17 05:31:38;;;;;;;;;;;;;;;;;;5048677;28;19917;-87
2021/04/17 05:34:05;;;;;;;;;;;;;;;;;;5033377;28;19916;-87
2021/04/17 05:36:30;;;;;;;;;;;;;;;;;;5033414;28;20397;-86
2021/04/17 05:38:55;;;;;;;;;;;;;;;;;;5049825;28;19928;-85
2021/04/17 05:41:20;;;;;;;;;;;;;;;;;;5054796;28;19923;-85
2021/04/17 05:43:46;;;;;;;;;;;;;;;;;;5057180;28;20166;-85
2021/04/17 05:46:11;;;;;;;;;;;;;;;;;;5082174;28;19981;-85
2021/04/17 05:48:36;;;;;;;;;;;;;;;;;;5057479;28;19926;-84
2021/04/17 05:51:01;;;;;;;;;;;;;;;;;;5055561;28;20285;-88
2021/04/17 05:53:27;;;;;;;;;;;;;;;;;;5057268;28;19923;-88
2021/04/17 05:55:52;;;;;;;;;;;;;;;;;;5057290;28;20289;-88
2021/04/17 05:58:17;;;;;;;;;;;;;;;;;;5058006;28;19918;-89
2021/04/17 06:00:43;;;;;;;;;;;;;;;;;;5074116;28;20414;-89
2021/04/17 06:03:08;;;;;;;;;;;;;;;;;;5072594;28;20018;-89
2021/04/17 06:05:33;;;;;;;;;;;;;;;;;;5056438;28;19921;-89
2021/04/17 06:07:58;;;;;;;;;;;;;;;;;;5056601;28;19912;-87
2021/04/17 06:10:24;;;;;;;;;;;;;;;;;;5072849;28;19916;-87
2021/04/17 06:12:49;;;;;;;;;;;;;;;;;;5073560;28;19919;-88
2021/04/17 06:15:15;;;;;;;;;;;;;;;;;;5073628;28;19913;-87
2021/04/17 06:17:40;;;;;;;;;;;;;;;;;;5057161;28;19920;-88
2021/04/17 06:20:06;;;;;;;;;;;;;;;;;;5074249;28;19920;-88
2021/04/17 06:22:31;;;;;;;;;;;;;;;;;;5056145;28;19916;-88
2021/04/17 06:24:56;;;;;;;;;;;;;;;;;;5057045;28;19920;-86
2021/04/17 06:27:22;;;;;;;;;;;;;;;;;;5057173;28;20326;-86
2021/04/17 06:29:47;;;;;;;;;;;;;;;;;;5039289;28;19912;-85
2021/04/17 06:32:12;;;;;;;;;;;;;;;;;;5073412;28;19916;-86
2021/04/17 06:34:38;;;;;;;;;;;;;;;;;;5073165;28;19924;-86
2021/04/17 06:37:03;;;;;;;;;;;;;;;;;;5056425;28;19912;-87
2021/04/17 06:39:28;;;;;;;;;;;;;;;;;;5073900;28;19912;-87
2021/04/17 06:41:53;;;;;;;;;;;;;;;;;;5056924;28;19916;-87
2021/04/17 06:44:20;;;;;;;;;;;;;;;;;;5056841;28;19912;-87
2021/04/17 06:46:45;;;;;;;;;;;;;;;;;;5055351;28;20431;-88
2021/04/17 06:49:10;;;;;;;;;;;;;;;;;;5073785;28;19920;-87
2021/04/17 06:51:36;;;;;;;;;;;;;;;;;;5073495;28;19924;-87
2021/04/17 06:54:02;;;;;;;;;;;;;;;;;;5056338;28;19972;-87
2021/04/17 06:56:27;;;;;;;;;;;;;;;;;;5056369;28;19912;-87
2021/04/17 06:58:53;;;;;;;;;;;;;;;;;;5072689;28;20069;-87
2021/04/17 07:01:18;;;;;;;;;;;;;;;;;;5072611;28;19923;-87
2021/04/17 07:03:43;;;;;;;;;;;;;;;;;;5055518;28;19924;-87
2021/04/17 07:06:09;;;;;;;;;;;;;;;;;;5073182;28;20277;-87
2021/04/17 07:08:37;;;;;;;;;;;;;;;;;;5071192;28;19912;-86
2021/04/17 07:11:02;;;;;;;;;;;;;;;;;;5055292;28;20472;-87
2021/04/17 07:13:28;;;;;;;;;;;;;;;;;;5056166;28;20002;-87
2021/04/17 07:15:54;;;;;;;;;;;;;;;;;;5072054;28;20273;-86
2021/04/17 07:18:26;;;;;;;;;;;;;;;;;;5073141;28;19912;-88
2021/04/17 07:20:54;;;;;;;;;;;;;;;;;;5056125;28;19916;-87
2021/04/17 07:23:36;;;;;;;;;;;;;;;;;;5071515;28;19928;-87
2021/04/17 07:26:09;;;;;;;;;;;;;;;;;;5070415;28;19927;-86
2021/04/17 07:28:35;;;;;;;;;;;;;;;;;;5054122;28;19928;-87
2021/04/17 07:31:00;;;;;;;;;;;;;;;;;;5078267;28;19924;-85
2021/04/17 07:33:29;;;;;;;;;;;;;;;;;;5080271;28;19939;-86
2021/04/17 07:35:56;;;;;;;;;;;;;;;;;;5075262;28;20170;-85
2021/04/17 07:38:21;;;;;;;;;;;;;;;;;;5059335;28;19945;-85
2021/04/17 07:40:47;;;;;;;;;;;;;;;;;;5075367;28;20007;-85
2021/04/17 07:43:17;;;;;;;;;;;;;;;;;;5057907;28;19928;-85
2021/04/17 07:45:43;;;;;;;;;;;;;;;;;;5083775;28;20394;-86
2021/04/17 07:48:22;;;;;;;;;;;;;;;;;;5059973;28;19912;-86
2021/04/17 07:50:47;;;;;;;;;;;;;;;;;;5058627;28;19967;-87
2021/04/17 07:53:26;;;;;;;;;;;;;;;;;;5075521;28;20017;-87
2021/04/17 07:55:51;;;;;;;;;;;;;;;;;;5060146;28;19912;-90
2021/04/17 07:58:16;;;;;;;;;;;;;;;;;;5077159;28;19920;-89
2021/04/17 08:00:42;;;;;;;;;;;;;;;;;;5083025;28;19969;-89
2021/04/17 08:03:07;;;;;;;;;;;;;;;;;;5059864;28;19923;-89
2021/04/17 08:05:32;;;;;;;;;;;;;;;;;;5076160;28;20421;-88
2021/04/17 08:07:58;;;;;;;;;;;;;;;;;;5076780;28;19916;-90
2021/04/17 08:10:23;;;;;;;;;;;;;;;;;;5059903;28;19916;-90
2021/04/17 08:12:48;;;;;;;;;;;;;;;;;;5076346;28;20320;-87
2021/04/17 08:15:18;;;;;;;;;;;;;;;;;;5059164;28;19916;-86
2021/04/17 08:17:44;;;;;;;;;;;;;;;;;;5075703;28;19912;-87
2021/04/17 08:20:10;;;;;;;;;;;;;;;;;;5075921;28;19962;-82
2021/04/17 08:22:36;;;;;;;;;;;;;;;;;;5075776;28;19919;-78
2021/04/17 08:25:01;;;;;;;;;;;;;;;;;;5075561;28;19920;-78
2021/04/17 08:27:30;;;;;;;;;;;;;;;;;;5058891;28;19969;-79
2021/04/17 08:29:56;;;;;;;;;;;;;;;;;;5075248;28;20014;-77
2021/04/17 08:32:25;;;;;;;;;;;;;;;;;;5065162;28;19924;-77
2021/04/17 08:34:58;;;;;;;;;;;;;;;;;;5065227;28;19920;-79
2021/04/17 08:37:24;;;;;;;;;;;;;;;;;;5093249;28;19957;-79
2021/04/17 08:39:53;;;;;;;;;;;;;;;;;;5075075;28;19960;-80
2021/04/17 08:42:19;;;;;;;;;;;;;;;;;;5058803;28;20369;-81
2021/04/17 08:44:45;;;;;;;;;;;;;;;;;;5058312;28;20361;-80
2021/04/17 08:47:11;;;;;;;;;;;;;;;;;;5075571;28;19964;-80
2021/04/17 08:49:37;;;;;;;;;;;;;;;;;;5075047;28;19916;-81
2021/04/17 08:52:08;;;;;;;;;;;;;;;;;;5074095;28;20050;-80
2021/04/17 08:54:33;;;;;;;;;;;;;;;;;;5091339;28;19912;-81
2021/04/17 08:57:00;;;;;;;;;;;;;;;;;;5074849;28;19965;-81
2021/04/17 08:59:32;;;;;;;;;;;;;;;;;;5073728;28;19916;-81
2021/04/17 09:01:59;;;;;;;;;;;;;;;;;;5057306;28;20293;-81
2021/04/17 09:04:24;;;;;;;;;;;;;;;;;;5073879;28;19916;-81
2021/04/17 09:06:50;;;;;;;;;;;;;;;;;;5057854;28;19918;-81
2021/04/17 09:09:16;;;;;;;;;;;;;;;;;;5057676;28;19912;-81
2021/04/17 09:11:41;;;;;;;;;;;;;;;;;;5074383;28;20549;-81
2021/04/17 09:14:25;;;;;;;;;;;;;;;;;;5073570;28;19946;-81
2021/04/17 09:16:50;;;;;;;;;;;;;;;;;;5091458;28;19923;-81
2021/04/17 09:19:34;;;;;;;;;;;;;;;;;;5057934;28;19916;-81
2021/04/17 09:21:59;;;;;;;;;;;;;;;;;;5099727;28;20389;-81
2021/04/17 09:24:25;;;;;;;;;;;;;;;;;;5057626;28;20000;-81
2021/04/17 09:26:50;;;;;;;;;;;;;;;;;;5074422;28;19931;-81
2021/04/17 09:29:15;;;;;;;;;;;;;;;;;;5074088;28;19962;-81
2021/04/17 09:31:41;;;;;;;;;;;;;;;;;;5073864;28;20369;-81
2021/04/17 09:34:07;;;;;;;;;;;;;;;;;;5073626;28;19930;-81
2021/04/17 09:36:33;;;;;;;;;;;;;;;;;;5074310;28;20006;-81
2021/04/17 09:38:58;;;;;;;;;;;;;;;;;;5074372;28;20430;-81
2021/04/17 09:41:24;;;;;;;;;;;;;;;;;;5056476;28;19912;-81
2021/04/17 09:43:53;;;;;;;;;;;;;;;;;;5074070;28;19934;-81
2021/04/17 09:46:18;;;;;;;;;;;;;;;;;;5073809;28;19912;-81
2021/04/17 09:48:43;;;;;;;;;;;;;;;;;;5073416;28;19991;-81
2021/04/17 09:51:19;;;;;;;;;;;;;;;;;;5073956;28;19911;-81
2021/04/17 09:53:46;;;;;;;;;;;;;;;;;;5073015;28;21314;-80
2021/04/17 09:56:13;;;;;;;;;;;;;;;;;;5072549;28;19959;-80
2021/04/17 09:58:41;;;;;;;;;;;;;;;;;;5072779;28;20397;-81
2021/04/17 10:01:16;;;;;;;;;;;;;;;;;;5056038;28;19977;-81
2021/04/17 10:03:43;;;;;;;;;;;;;;;;;;5056988;28;19920;-81
2021/04/17 10:06:22;;;;;;;;;;;;;;;;;;5054147;28;20415;-81
2021/04/17 10:08:47;;;;;;;;;;;;;;;;;;5053461;28;19920;-81
2021/04/17 10:11:30;;;;;;;;;;;;;;;;;;5069708;28;19916;-82
2021/04/17 10:13:56;;;;;;;;;;;;;;;;;;5071234;28;20029;-80
2021/04/17 10:16:25;;;;;;;;;;;;;;;;;;5071286;28;19935;-81
2021/04/17 10:18:51;;;;;;;;;;;;;;;;;;5071605;28;19916;-81
2021/04/17 10:21:16;;;;;;;;;;;;;;;;;;5060859;28;20369;-82
2021/04/17 10:23:41;;;;;;;;;;;;;;;;;;5071491;28;19970;-81
2021/04/17 10:26:07;;;;;;;;;;;;;;;;;;5070577;28;20434;-81
2021/04/17 10:28:33;;;;;;;;;;;;;;;;;;5053837;28;19926;-80
2021/04/17 10:31:00;;;;;;;;;;;;;;;;;;5071254;28;19998;-81
2021/04/17 10:33:26;;;;;;;;;;;;;;;;;;5071253;28;19965;-81
2021/04/17 10:35:52;;;;;;;;;;;;;;;;;;5070632;28;20332;-80
2021/04/17 10:38:30;;;;;;;;;;;;;;;;;;5070635;28;19920;-80
2021/04/17 10:40:56;;;;;;;;;;;;;;;;;;5087192;28;19912;-80
2021/04/17 10:43:21;;;;;;;;;;;;;;;;;;5054381;28;19965;-80
2021/04/17 10:45:47;;;;;;;;;;;;;;;;;;5071018;28;20309;-79
2021/04/17 10:48:14;;;;;;;;;;;;;;;;;;5088757;28;19920;-79
2021/04/17 10:50:41;;;;;;;;;;;;;;;;;;5071705;28;19916;-80
2021/04/17 10:53:08;;;;;;;;;;;;;;;;;;5071830;28;19920;-79
2021/04/17 10:55:46;;;;;;;;;;;;;;;;;;5079520;28;20324;-78
2021/04/17 10:58:18;;;;;;;;;;;;;;;;;;5073064;28;19916;-78
2021/04/17 11:00:46;;;;;;;;;;;;;;;;;;5056035;28;19912;-78
2021/04/17 11:03:11;;;;;;;;;;;;;;;;;;5073078;28;19967;-79
2021/04/17 11:05:36;;;;;;;;;;;;;;;;;;5072024;28;20354;-79
2021/04/17 11:08:03;;;;;;;;;;;;;;;;;;5075005;28;19921;-79
2021/04/17 11:10:38;;;;;;;;;;;;;;;;;;5076056;28;19912;-79
2021/04/17 11:13:04;;;;;;;;;;;;;;;;;;5060463;28;19912;-79
2021/04/17 11:15:29;;;;;;;;;;;;;;;;;;5075885;28;19916;-78
2021/04/17 11:18:13;;;;;;;;;;;;;;;;;;5076963;28;20272;-79
2021/04/17 11:20:46;;;;;;;;;;;;;;;;;;5093321;28;19916;-79
2021/04/17 11:23:30;;;;;;;;;;;;;;;;;;5076535;28;20397;-78
2021/04/17 11:25:55;;;;;;;;;;;;;;;;;;5076441;28;20366;-78
2021/04/17 11:28:20;;;;;;;;;;;;;;;;;;5076400;28;19973;-79
2021/04/17 11:30:46;;;;;;;;;;;;;;;;;;5084552;28;19939;-79
2021/04/17 11:33:11;;;;;;;;;;;;;;;;;;5094652;28;20103;-79
2021/04/17 11:35:36;;;;;;;;;;;;;;;;;;5076616;28;19927;-79
2021/04/17 11:38:01;;;;;;;;;;;;;;;;;;5076344;28;20010;-79
2021/04/17 11:40:27;;;;;;;;;;;;;;;;;;5074557;28;20002;-79
2021/04/17 11:42:52;;;;;;;;;;;;;;;;;;5074500;28;19912;-78
2021/04/17 11:45:20;;;;;;;;;;;;;;;;;;5075633;28;19908;-79
2021/04/17 11:47:46;;;;;;;;;;;;;;;;;;5076164;28;19935;-79
2021/04/17 11:50:11;;;;;;;;;;;;;;;;;;5075321;28;19916;-78
2021/04/17 11:52:36;;;;;;;;;;;;;;;;;;5075604;28;19927;-78
2021/04/17 11:55:01;;;;;;;;;;;;;;;;;;5093365;28;19920;-78
2021/04/17 11:57:27;;;;;;;;;;;;;;;;;;5094698;28;19927;-79
2021/04/17 11:59:52;;;;;;;;;;;;;;;;;;5075483;28;20380;-79
2021/04/17 12:02:17;;;;;;;;;;;;;;;;;;5075776;28;19920;-78
2021/04/17 12:04:43;;;;;;;;;;;;;;;;;;5075722;28;20324;-79
2021/04/17 12:07:08;;;;;;;;;;;;;;;;;;5075831;28;20349;-78
2021/04/17 12:09:33;;;;;;;;;;;;;;;;;;5075646;28;19916;-77
2021/04/17 12:11:58;;;;;;;;;;;;;;;;;;5092463;28;19923;-77
2021/04/17 12:14:24;;;;;;;;;;;;;;;;;;5075560;28;20439;-77
2021/04/17 12:16:49;;;;;;;;;;;;;;;;;;5076158;28;19962;-77
2021/04/17 12:19:14;;;;;;;;;;;;;;;;;;5074838;28;19955;-77
2021/04/17 12:21:39;;;;;;;;;;;;;;;;;;5075693;28;19912;-77
2021/04/17 12:24:05;;;;;;;;;;;;;;;;;;5075242;28;19912;-77
2021/04/17 12:26:30;;;;;;;;;;;;;;;;;;5093542;28;19916;-77
2021/04/17 12:28:55;;;;;;;;;;;;;;;;;;5075404;28;19959;-77
2021/04/17 12:31:22;;;;;;;;;;;;;;;;;;5075492;28;19920;-77
2021/04/17 12:33:47;;;;;;;;;;;;;;;;;;5092441;28;19931;-77
2021/04/17 12:36:12;;;;;;;;;;;;;;;;;;5074553;28;19919;-77
2021/04/17 12:38:37;;;;;;;;;;;;;;;;;;5074923;28;19919;-77
2021/04/17 12:41:03;;;;;;;;;;;;;;;;;;5075050;28;20315;-77
2021/04/17 12:43:28;;;;;;;;;;;;;;;;;;5075438;28;19943;-77
2021/04/17 12:45:53;;;;;;;;;;;;;;;;;;5073274;28;20370;-78
2021/04/17 12:48:21;;;;;;;;;;;;;;;;;;5073964;28;19916;-79
2021/04/17 12:50:49;;;;;;;;;;;;;;;;;;5074255;28;19920;-79
2021/04/17 12:53:14;;;;;;;;;;;;;;;;;;5083178;28;19923;-78
2021/04/17 12:55:39;;;;;;;;;;;;;;;;;;5074753;28;19908;-80
2021/04/17 12:58:05;;;;;;;;;;;;;;;;;;5075006;28;19912;-77
2021/04/17 13:00:31;;;;;;;;;;;;;;;;;;5074430;28;19915;-77
2021/04/17 13:02:56;;;;;;;;;;;;;;;;;;5075109;28;20627;-77
2021/04/17 13:05:22;;;;;;;;;;;;;;;;;;5074610;28;19969;-78
2021/04/17 13:07:47;;;;;;;;;;;;;;;;;;5092496;28;19920;-79
2021/04/17 13:10:12;;;;;;;;;;;;;;;;;;5074818;28;19919;-78
2021/04/17 13:12:37;;;;;;;;;;;;;;;;;;5074140;28;19951;-78
2021/04/17 13:15:03;;;;;;;;;;;;;;;;;;5090578;28;19962;-78
2021/04/17 13:17:29;;;;;;;;;;;;;;;;;;5074170;28;19934;-78
2021/04/17 13:19:54;;;;;;;;;;;;;;;;;;5092718;28;20021;-78
2021/04/17 13:22:19;;;;;;;;;;;;;;;;;;5074017;28;19920;-78
2021/04/17 13:24:44;;;;;;;;;;;;;;;;;;5074594;28;19963;-78
2021/04/17 13:27:11;;;;;;;;;;;;;;;;;;5073940;28;19967;-78
2021/04/17 13:29:36;;;;;;;;;;;;;;;;;;5073831;28;19912;-78
2021/04/17 13:32:02;;;;;;;;;;;;;;;;;;5074156;28;19924;-79
2021/04/17 13:34:27;;;;;;;;;;;;;;;;;;5073433;28;19920;-78
2021/04/17 13:36:52;;;;;;;;;;;;;;;;;;5073976;28;20010;-78
2021/04/17 13:39:18;;;;;;;;;;;;;;;;;;5074284;28;19912;-78
2021/04/17 13:41:43;;;;;;;;;;;;;;;;;;5073884;28;19912;-78
2021/04/17 13:44:11;;;;;;;;;;;;;;;;;;5074489;28;19965;-78
2021/04/17 13:46:36;;;;;;;;;;;;;;;;;;5092269;28;20404;-78
2021/04/17 13:49:01;;;;;;;;;;;;;;;;;;5074185;28;20128;-78
2021/04/17 13:51:27;;;;;;;;;;;;;;;;;;5072407;28;19946;-79
2021/04/17 13:53:52;;;;;;;;;;;;;;;;;;5074058;28;19923;-78
2021/04/17 13:56:17;;;;;;;;;;;;;;;;;;5073259;28;19916;-78
2021/04/17 13:58:42;;;;;;;;;;;;;;;;;;5082208;28;19959;-78
2021/04/17 14:01:08;;;;;;;;;;;;;;;;;;5073520;28;19912;-78
2021/04/17 14:03:34;;;;;;;;;;;;;;;;;;5073678;28;19920;-78
2021/04/17 14:05:59;;;;;;;;;;;;;;;;;;5064507;28;19912;-78
2021/04/17 14:08:25;;;;;;;;;;;;;;;;;;5091735;28;20003;-78
2021/04/17 14:10:50;;;;;;;;;;;;;;;;;;5091436;28;19923;-78
2021/04/17 14:13:15;;;;;;;;;;;;;;;;;;5073853;28;20327;-78
2021/04/17 14:15:41;;;;;;;;;;;;;;;;;;5073323;28;19916;-78
2021/04/17 14:18:06;;;;;;;;;;;;;;;;;;5073919;28;20330;-78
2021/04/17 14:20:31;;;;;;;;;;;;;;;;;;5073332;28;19942;-77
2021/04/17 14:22:57;;;;;;;;;;;;;;;;;;5090397;28;19920;-78
2021/04/17 14:25:22;;;;;;;;;;;;;;;;;;5073147;28;20277;-78
2021/04/17 14:27:47;;;;;;;;;;;;;;;;;;5073481;28;19912;-78
2021/04/17 14:30:13;;;;;;;;;;;;;;;;;;5072525;28;19920;-78
2021/04/17 14:32:38;;;;;;;;;;;;;;;;;;5072999;28;20373;-78
2021/04/17 14:35:04;;;;;;;;;;;;;;;;;;5072681;28;19917;-78
2021/04/17 14:37:29;;;;;;;;;;;;;;;;;;5091532;28;19973;-78
2021/04/17 14:39:54;;;;;;;;;;;;;;;;;;5073346;28;19912;-78
2021/04/17 14:42:20;;;;;;;;;;;;;;;;;;5090921;28;19913;-78
2021/04/17 14:44:45;;;;;;;;;;;;;;;;;;5073325;28;20371;-78
2021/04/17 14:47:10;;;;;;;;;;;;;;;;;;5091301;28;19956;-78
2021/04/17 14:49:35;;;;;;;;;;;;;;;;;;5072863;28;19919;-78
2021/04/17 14:52:01;;;;;;;;;;;;;;;;;;5091111;28;20430;-78
2021/04/17 14:54:26;;;;;;;;;;;;;;;;;;5073186;28;19927;-78
2021/04/17 14:56:51;;;;;;;;;;;;;;;;;;5073187;28;19951;-79
2021/04/17 14:59:16;;;;;;;;;;;;;;;;;;5073199;28;20381;-78
2021/04/17 15:01:45;;;;;;;;;;;;;;;;;;5072855;28;19924;-78
2021/04/17 15:04:10;;;;;;;;;;;;;;;;;;5072690;28;19927;-78
2021/04/17 15:06:36;;;;;;;;;;;;;;;;;;5072579;28;19920;-78
2021/04/17 15:09:01;;;;;;;;;;;;;;;;;;5073170;28;19944;-78
2021/04/17 15:11:26;;;;;;;;;;;;;;;;;;5072965;28;20490;-78
2021/04/17 15:13:51;;;;;;;;;;;;;;;;;;5090832;28;19920;-78
2021/04/17 15:16:17;;;;;;;;;;;;;;;;;;5089999;28;19973;-78
2021/04/17 15:18:42;;;;;;;;;;;;;;;;;;5072804;28;19959;-78
2021/04/17 15:21:07;;;;;;;;;;;;;;;;;;5089781;28;19916;-78
2021/04/17 15:23:32;;;;;;;;;;;;;;;;;;5072677;28;20273;-78
2021/04/17 15:25:58;;;;;;;;;;;;;;;;;;5071894;28;19916;-78
2021/04/17 15:28:27;;;;;;;;;;;;;;;;;;5072864;28;20044;-78
2021/04/17 15:30:52;;;;;;;;;;;;;;;;;;5072545;28;19927;-78
2021/04/17 15:33:18;;;;;;;;;;;;;;;;;;5072386;28;19933;-78
2021/04/17 15:35:43;;;;;;;;;;;;;;;;;;5072311;28;19908;-78
2021/04/17 15:38:10;;;;;;;;;;;;;;;;;;5064464;28;20377;-78
2021/04/17 15:40:35;;;;;;;;;;;;;;;;;;5072581;28;19915;-78
2021/04/17 15:43:02;;;;;;;;;;;;;;;;;;5072848;28;19920;-78
2021/04/17 15:45:28;;;;;;;;;;;;;;;;;;5072182;28;19959;-79
2021/04/17 15:47:53;;;;;;;;;;;;;;;;;;5090799;28;20008;-78
2021/04/17 15:50:18;;;;;;;;;;;;;;;;;;5090862;28;20463;-78
2021/04/17 15:52:43;;;;;;;;;;;;;;;;;;5055530;28;19916;-78
2021/04/17 15:55:09;;;;;;;;;;;;;;;;;;5074287;28;19912;-78
2021/04/17 16:10:29;;;;;;;;;;;;;;;;;;5077387;28;20386;-78
2021/04/17 16:14:31;;;;;;;;;;;;;;;;;;5101403;28;19912;-78
2021/04/17 16:16:56;;;;;;;;;;;;;;;;;;5075961;28;19919;-78
2021/04/17 16:19:22;;;;;;;;;;;;;;;;;;5075797;28;19920;-78
2021/04/17 16:21:48;;;;;;;;;;;;;;;;;;5075730;28;19919;-78
2021/04/17 16:24:13;;;;;;;;;;;;;;;;;;5059034;28;19998;-78
2021/04/17 16:26:39;;;;;;;;;;;;;;;;;;5075410;28;19969;-78
2021/04/17 16:29:06;;;;;;;;;;;;;;;;;;5075748;28;19912;-78
2021/04/17 16:31:31;;;;;;;;;;;;;;;;;;5075555;28;19920;-78
2021/04/17 16:33:57;;;;;;;;;;;;;;;;;;5075436;28;20012;-78
2021/04/17 16:36:22;;;;;;;;;;;;;;;;;;5074827;28;19927;-78
2021/04/17 16:38:47;;;;;;;;;;;;;;;;;;5092964;28;20462;-78
2021/04/17 16:41:13;;;;;;;;;;;;;;;;;;5075062;28;19912;-78
2021/04/17 16:43:39;;;;;;;;;;;;;;;;;;5076055;28;19965;-78
2021/04/17 16:46:04;;;;;;;;;;;;;;;;;;5075225;28;19912;-78
2021/04/17 16:48:29;;;;;;;;;;;;;;;;;;5075158;28;20285;-78
2021/04/17 16:50:54;;;;;;;;;;;;;;;;;;5074912;28;19912;-78
2021/04/17 16:53:20;;;;;;;;;;;;;;;;;;5075389;28;19916;-77
2021/04/17 16:55:45;;;;;;;;;;;;;;;;;;5075446;28;20369;-78